Date,TemperatureHighF,TemperatureAvgF,TemperatureLowF,DewpointHighF,DewpointAvgF,DewpointLowF,HumidityHigh,HumidityAvg,HumidityLow,PressureMaxIn,PressureMinIn,WindSpeedMaxMPH,WindSpeedAvgMPH,GustSpeedMaxMPH,PrecipitationSumIn
2013-1-1,45.9,34.8,23.5,27.1,20.4,13.1,86,59,31,30.22,30.12,11,-6,12,0.00
2013-1-2,48.9,35.7,22.8,16.9,14.2,10.6,67,44,24,30.22,30.08,14,0,16,0.00
2013-1-3,36.7,33.0,30.6,30.2,26.5,16.5,92,78,46,30.28,30.12,17,0,19,0.06
2013-1-4,34.7,31.4,27.1,30.4,27.2,24.3,91,84,75,30.33,30.25,7,-3,7,0.09
2013-1-5,30.9,26.0,20.5,27.1,23.4,18.0,93,90,85,30.38,30.28,7,0,8,0.00
2013-1-6,46.9,30.9,19.0,33.1,24.6,16.9,95,79,49,30.39,30.09,7,0,9,0.01
2013-1-7,56.7,46.2,36.1,33.6,30.3,27.5,74,55,38,30.09,29.84,17,5,21,0.00
2013-1-8,57.7,46.8,36.5,32.9,26.1,17.8,66,46,23,30.06,29.85,13,4,14,0.00
2013-1-9,59.0,46.1,32.7,28.8,22.9,16.0,65,41,25,30.25,30.07,17,4,19,0.00
2013-1-10,58.5,43.5,28.6,32.4,27.9,20.7,75,56,35,30.11,29.89,11,2,12,0.00
2013-1-11,52.0,45.3,32.2,31.6,22.2,10.2,66,41,29,29.93,29.83,23,7,28,0.00
2013-1-12,43.7,33.8,25.7,13.5,9.9,5.2,55,38,21,30.06,29.89,23,5,27,0.00
2013-1-13,41.4,29.3,14.7,10.8,6.5,4.3,66,40,22,30.13,29.97,10,-2,11,0.00
2013-1-14,45.0,33.2,25.0,21.9,11.6,0.1,70,43,20,30.05,29.96,21,5,23,0.00
2013-1-15,38.5,28.9,20.5,10.4,3.0,-3.3,59,35,17,30.31,30.05,19,5,21,0.00
2013-1-16,46.6,31.4,19.4,7.3,2.8,-2.6,42,30,18,30.40,30.28,10,2,10,0.00
2013-1-17,57.4,39.7,21.2,23.5,14.6,3.9,52,37,23,30.46,30.31,18,3,21,0.00
2013-1-18,58.5,43.0,28.6,24.8,20.2,16.2,70,43,20,30.35,30.20,9,1,9,0.00
2013-1-19,61.5,42.3,25.5,22.5,17.9,14.4,64,40,19,30.36,30.23,7,1,9,0.00
2013-1-20,63.5,43.1,26.1,18.1,13.8,10.6,54,33,14,30.31,30.15,5,1,6,0.00
2013-1-21,63.3,46.3,30.4,14.4,12.5,10.2,46,28,13,30.29,30.16,11,2,12,0.00
2013-1-22,65.7,47.3,32.2,16.5,13.5,10.6,42,27,12,30.32,30.21,6,1,8,0.00
2013-1-23,69.6,48.0,29.8,21.7,16.4,10.8,46,30,14,30.40,30.26,6,1,8,0.00
2013-1-24,73.6,53.1,34.3,33.4,24.4,16.7,52,34,19,30.35,30.20,13,2,14,0.00
2013-1-25,64.6,55.7,46.6,43.5,38.8,33.3,64,53,36,30.31,30.17,17,2,18,0.00
2013-1-26,68.2,55.7,46.8,49.5,44.6,38.3,85,67,46,30.18,30.02,13,2,14,0.01
2013-1-27,65.5,54.1,45.0,49.5,43.5,37.4,93,70,43,30.12,30.03,16,3,20,0.02
2013-1-28,66.2,52.9,37.2,41.9,36.0,31.3,89,56,30,30.05,29.89,28,7,32,0.00
2013-1-29,45.9,41.1,36.9,35.1,22.4,13.1,76,50,28,30.09,29.92,38,14,43,0.01
2013-1-30,50.7,39.2,27.7,23.2,14.2,5.2,75,40,16,30.29,30.09,17,1,21,0.00
2013-1-31,57.7,41.2,25.7,22.1,17.3,11.1,59,40,22,30.32,30.21,12,1,13,0.00
2013-2-1,63.0,44.4,26.6,21.2,17.2,14.5,62,37,17,30.30,30.18,9,-6,14,0.00
2013-2-2,66.6,47.2,28.8,21.4,15.7,12.4,54,31,13,30.39,30.26,9,1,10,0.00
2013-2-3,63.9,50.7,37.6,33.4,19.6,13.1,51,31,16,30.29,30.03,13,2,15,0.00
2013-2-4,65.8,53.4,42.8,35.1,31.3,27.1,59,44,31,30.13,30.01,12,2,16,0.00
2013-2-5,67.1,51.3,35.1,32.2,29.6,26.2,72,47,23,30.14,29.99,9,2,11,0.00
2013-2-6,68.2,53.6,34.3,33.6,28.5,19.6,67,41,17,30.06,29.95,21,4,25,0.00
2013-2-7,65.7,51.9,39.6,35.4,26.2,16.3,67,40,20,30.18,30.06,10,2,11,0.00
2013-2-8,70.3,56.1,43.7,29.3,21.8,8.2,44,28,13,30.14,29.89,27,8,35,0.00
2013-2-9,61.9,48.4,36.1,24.1,16.1,8.6,47,28,17,30.03,29.81,33,9,45,0.00
2013-2-10,54.7,41.3,28.6,20.8,14.9,8.2,64,37,16,30.08,29.96,21,2,28,0.00
2013-2-11,60.4,43.4,26.1,33.1,13.1,6.4,73,31,16,30.06,29.92,16,0,21,0.00
2013-2-12,52.0,41.1,32.4,33.8,18.8,5.5,81,47,18,30.19,30.04,20,5,22,0.00
2013-2-13,55.4,39.8,23.4,15.4,10.4,6.3,53,32,16,30.23,30.08,12,2,15,0.00
2013-2-14,61.5,43.4,24.8,18.3,12.1,5.2,44,29,15,30.19,30.04,14,-1,16,0.00
2013-2-15,57.6,45.9,36.1,28.8,21.1,10.2,57,38,21,30.37,30.17,10,2,12,0.00
2013-2-16,61.9,44.0,26.8,22.5,15.6,7.7,62,36,15,30.44,30.19,9,1,11,0.00
2013-2-17,69.4,49.0,26.1,13.5,8.0,-1.7,43,22,7,30.19,29.88,17,3,19,0.00
2013-2-18,64.9,52.4,36.3,13.5,6.7,-1.7,32,17,7,30.13,29.94,19,4,26,0.00
2013-2-19,59.4,47.4,35.8,46.4,25.5,5.2,92,51,16,30.08,29.88,15,3,18,0.19
2013-2-20,61.3,48.1,36.1,43.7,32.3,19.4,92,62,21,29.88,29.61,43,10,49,0.01
2013-2-21,51.1,40.5,30.7,27.1,24.0,21.6,72,53,32,30.05,29.87,21,8,25,0.00
2013-2-22,56.1,43.2,29.7,27.9,23.7,19.8,79,50,25,30.11,29.99,20,5,23,0.00
2013-2-23,61.0,45.5,29.8,23.5,21.2,15.4,70,41,20,30.14,29.86,15,3,18,0.00
2013-2-24,63.3,44.0,32.0,26.1,19.1,6.8,61,40,15,29.99,29.70,37,10,41,0.00
2013-2-25,53.8,39.8,24.3,15.6,11.8,7.7,58,34,17,30.15,29.99,16,4,20,0.00
2013-2-26,66.4,47.1,28.2,15.8,5.2,-8.0,43,22,6,30.09,29.87,28,7,32,0.00
2013-2-27,54.9,43.6,31.6,13.8,2.6,-2.7,32,19,10,30.30,30.09,11,3,14,0.00
2013-2-28,58.1,43.7,26.4,16.0,9.3,1.4,49,27,11,30.35,30.22,12,2,14,0.00
2013-3-1,64.0,47.4,29.1,12.4,7.7,1.2,34,21,11,30.38,30.26,11,2,11,0.00
2013-3-2,70.3,52.4,32.5,18.3,13.9,8.2,39,23,12,30.42,30.22,9,1,10,0.00
2013-3-3,81.5,60.3,36.1,17.4,8.2,-28.8,42,18,1,30.23,29.96,22,5,26,0.00
2013-3-4,79.3,63.2,45.9,29.1,16.8,-5.8,27,18,4,30.12,29.84,33,8,40,0.00
2013-3-5,65.3,54.3,41.7,28.9,25.0,19.0,50,33,22,30.32,30.12,31,10,31,0.00
2013-3-6,76.8,62.4,51.6,27.5,25.2,23.4,34,25,15,30.22,30.02,26,7,33,0.00
2013-3-7,78.4,65.0,48.6,29.3,22.8,8.8,39,22,8,30.10,29.96,17,4,20,0.00
2013-3-8,70.9,61.1,53.1,50.7,36.2,21.9,71,40,23,30.04,29.89,24,6,27,0.03
2013-3-9,59.2,49.1,40.1,38.5,28.9,19.9,72,48,23,30.05,29.91,29,11,34,0.00
2013-3-10,57.6,45.7,32.7,30.6,24.5,19.4,78,47,25,30.20,30.05,16,2,21,0.00
2013-3-11,67.5,51.0,32.5,25.5,19.0,13.6,54,31,15,30.24,30.07,16,3,18,0.00
2013-3-12,74.1,56.3,36.3,25.0,16.8,12.7,40,23,10,30.26,30.11,16,3,20,0.00
2013-3-13,76.1,60.7,42.3,25.7,19.8,9.7,46,23,8,30.35,30.19,17,5,19,0.00
2013-3-14,81.1,61.4,40.8,19.4,12.3,2.7,31,17,5,30.33,30.17,7,1,8,0.00
2013-3-15,85.5,64.3,42.6,17.1,7.7,-1.3,27,13,4,30.22,30.00,11,2,16,0.00
2013-3-16,85.5,68.0,49.3,18.3,9.3,-13.0,23,12,2,30.03,29.84,23,5,26,0.00
2013-3-17,80.1,67.5,48.7,19.0,12.3,7.0,22,12,7,29.98,29.84,38,10,38,0.00
2013-3-18,78.3,65.3,50.0,22.6,15.2,4.1,29,15,6,30.10,29.96,21,7,24,0.00
2013-3-19,77.7,63.5,47.7,23.2,16.1,9.1,26,16,9,30.13,29.99,24,5,26,0.00
2013-3-20,72.0,62.1,47.1,34.2,29.3,20.1,51,30,20,30.25,29.96,21,4,21,0.00
2013-3-21,80.4,65.1,47.8,31.1,24.1,10.0,46,24,8,29.96,29.78,29,7,33,0.00
2013-3-22,80.1,66.5,50.5,28.8,22.8,15.4,32,20,12,29.91,29.74,28,7,33,0.00
2013-3-23,74.7,63.3,50.0,27.3,13.0,-11.7,37,17,4,30.04,29.86,40,10,41,0.00
2013-3-24,63.9,50.9,37.0,6.4,-1.5,-14.8,23,12,7,30.18,29.93,19,6,22,0.00
2013-3-25,63.1,52.1,40.3,12.0,6.9,0.1,23,16,10,30.20,29.99,16,5,19,0.00
2013-3-26,71.8,57.4,45.0,19.0,15.6,11.7,29,20,11,30.25,30.04,23,9,26,0.00
2013-3-27,80.1,62.9,43.7,24.4,20.0,15.6,37,21,10,30.14,30.01,17,3,24,0.00
2013-3-28,82.2,67.5,49.8,27.3,22.0,16.9,27,18,12,30.17,30.05,18,3,21,0.00
2013-3-29,83.7,69.2,53.1,23.9,17.7,9.9,27,15,7,30.18,30.05,16,4,36,0.00
2013-3-30,83.7,68.4,49.6,26.4,17.0,11.5,24,15,7,30.17,30.02,20,4,24,0.00
2013-3-31,82.9,68.1,50.5,30.4,22.6,17.8,33,19,11,30.12,29.99,15,3,17,0.00
2013-4-1,85.5,69.2,50.7,26.4,17.1,0.3,33,16,4,30.10,29.92,20,4,22,0.00
2013-4-2,82.8,67.4,52.3,26.6,15.1,2.3,31,15,6,30.02,29.84,28,5,29,0.00
2013-4-3,74.8,60.6,46.8,36.9,27.1,5.5,64,32,12,30.15,29.98,13,3,17,0.00
2013-4-4,81.0,64.9,45.5,32.9,21.3,7.2,49,23,6,30.23,30.09,11,2,14,0.00
2013-4-5,87.4,72.0,59.7,27.9,14.0,0.1,23,12,4,30.12,29.91,18,7,23,0.00
2013-4-6,84.4,69.2,54.1,29.7,21.6,15.3,29,18,8,30.07,29.91,22,5,27,0.00
2013-4-7,84.9,70.4,53.4,27.7,21.2,15.1,29,17,8,30.01,29.82,20,6,25,0.00
2013-4-8,86.2,71.1,53.8,27.5,21.4,5.7,32,16,5,29.86,29.60,28,8,38,0.00
2013-4-9,67.8,59.0,49.6,38.5,25.9,16.0,64,30,16,29.95,29.60,32,11,34,0.01
2013-4-10,67.5,55.8,42.4,30.7,24.3,16.5,57,32,15,30.02,29.91,28,7,30,0.00
2013-4-11,75.6,58.4,36.3,22.8,16.1,6.4,45,22,9,30.03,29.84,16,4,19,0.00
2013-4-12,81.3,66.1,50.5,27.7,16.2,10.4,24,15,8,29.96,29.83,17,2,19,0.00
2013-4-13,83.8,70.4,53.1,29.3,19.3,10.4,31,16,7,29.92,29.79,23,5,28,0.00
2013-4-14,83.5,70.5,54.7,27.1,21.7,16.7,26,16,9,29.92,29.77,28,9,30,0.00
2013-4-15,85.8,71.2,54.0,31.6,20.7,9.9,35,17,6,29.94,29.81,27,8,29,0.00
2013-4-16,88.0,71.7,50.9,29.7,15.2,-4.2,30,14,3,29.97,29.82,32,8,34,0.00
2013-4-17,82.0,67.4,52.5,28.4,18.9,3.4,32,17,6,30.01,29.76,38,12,44,0.00
2013-4-18,67.3,55.4,44.8,23.9,12.3,-11.9,39,22,4,30.20,30.01,24,6,24,0.00
2013-4-19,69.3,55.7,41.0,6.1,-4.7,-24.9,18,9,2,30.31,30.07,21,5,26,0.00
2013-4-20,81.9,62.5,37.6,9.5,-4.0,-30.1,20,9,1,30.07,29.90,26,6,30,0.00
2013-4-21,84.9,67.8,46.9,18.9,9.0,1.0,21,11,4,30.17,30.00,17,4,21,0.00
2013-4-22,90.0,72.8,51.3,14.0,4.5,-12.1,17,8,2,30.10,29.87,20,5,22,0.00
2013-4-23,88.9,73.0,55.0,26.1,8.5,-10.7,26,10,2,30.06,29.86,25,7,31,0.00
2013-4-24,75.9,61.6,45.0,31.1,27.0,22.8,47,29,14,30.21,30.04,25,9,29,0.00
2013-4-25,86.5,70.5,58.6,41.5,27.8,5.0,37,24,5,30.14,29.93,29,10,29,0.00
2013-4-26,84.6,70.0,51.6,23.0,11.6,-6.3,29,13,3,30.19,30.04,16,4,17,0.00
2013-4-27,85.6,70.8,52.7,27.7,15.6,1.9,33,14,5,30.20,30.02,14,2,19,0.00
2013-4-28,87.3,71.8,52.0,37.8,22.9,11.7,37,18,7,30.09,29.91,12,2,17,0.00
2013-4-29,92.3,75.0,56.3,34.3,10.1,-23.8,32,13,1,29.99,29.81,14,4,23,0.00
2013-4-30,93.7,77.6,59.5,16.7,6.2,-8.3,16,7,2,29.93,29.81,22,6,26,0.00
2013-5-1,90.3,76.6,59.7,22.5,10.5,-3.6,20,9,3,30.04,29.87,20,6,22,0.00
2013-5-2,67.5,59.6,51.1,36.9,24.9,7.5,45,28,10,30.41,30.04,26,8,28,0.00
2013-5-3,69.6,56.0,42.3,23.0,17.1,9.7,45,24,10,30.42,30.05,22,7,26,0.00
2013-5-4,85.1,66.9,45.7,24.4,16.4,9.1,34,16,6,30.05,29.89,16,3,20,0.00
2013-5-5,85.5,74.4,64.0,29.7,22.5,15.4,17,14,11,30.12,29.94,24,9,29,0.00
2013-5-6,84.2,74.0,65.7,39.9,28.2,20.8,37,19,10,30.08,29.97,25,8,38,0.00
2013-5-7,84.4,71.8,55.4,33.3,26.6,21.2,30,19,10,30.11,29.94,20,7,26,0.00
2013-5-8,82.9,71.5,55.8,31.1,23.5,16.9,33,18,9,30.11,29.96,19,7,24,0.00
2013-5-9,82.6,70.6,53.1,31.5,22.8,16.7,30,17,11,30.08,29.96,19,4,23,0.00
2013-5-10,80.2,68.0,58.3,45.7,35.3,23.7,60,32,17,30.21,30.02,34,6,37,0.00
2013-5-11,77.4,64.2,51.1,52.0,41.6,27.7,72,47,18,30.30,30.18,28,6,34,0.00
2013-5-12,81.0,69.1,53.8,43.2,35.4,29.3,54,31,17,30.32,30.15,17,4,23,0.00
2013-5-13,83.8,71.9,59.7,38.3,29.6,18.0,39,23,9,30.29,30.12,16,5,23,0.00
2013-5-14,87.3,73.5,59.7,42.6,36.0,18.9,44,28,10,30.18,29.99,14,3,16,0.00
2013-5-15,93.9,79.7,61.3,34.7,29.2,23.4,31,18,9,30.09,29.91,26,8,31,0.00
2013-5-16,94.5,80.2,61.9,32.4,23.2,11.7,26,14,5,30.08,29.91,20,5,24,0.00
2013-5-17,95.4,79.5,59.7,28.4,21.2,13.1,24,12,6,30.05,29.92,17,3,20,0.00
2013-5-18,90.9,78.1,63.1,30.9,18.4,-10.3,23,12,2,30.06,29.90,23,6,27,0.00
2013-5-19,90.7,77.1,60.1,31.1,19.3,3.9,21,12,4,30.04,29.85,25,7,27,0.00
2013-5-20,92.1,77.4,57.9,31.8,22.5,10.4,28,15,5,30.03,29.84,26,7,28,0.00
2013-5-21,89.1,74.9,56.3,31.5,19.9,7.5,30,14,5,30.08,29.92,20,4,23,0.00
2013-5-22,96.4,79.1,59.0,23.0,11.8,-7.6,19,9,2,30.01,29.88,18,3,19,0.00
2013-5-23,98.2,82.2,62.2,50.7,24.7,12.7,46,14,5,30.02,29.87,29,5,34,0.00
2013-5-24,96.3,80.8,64.2,51.4,42.2,26.4,60,31,11,30.11,29.95,20,5,23,0.00
2013-5-25,98.1,84.5,71.4,55.8,34.6,6.6,55,24,4,30.10,29.94,19,6,21,0.00
2013-5-26,97.3,82.5,64.2,28.2,17.4,-5.3,19,10,3,30.12,29.95,22,5,25,0.00
2013-5-27,94.8,79.9,60.1,20.7,9.6,-1.3,17,8,3,30.04,29.86,15,3,18,0.00
2013-5-28,95.5,80.5,61.9,20.8,8.2,-10.5,18,7,2,29.91,29.73,24,6,29,0.00
2013-5-29,91.6,80.1,67.8,32.7,23.5,0.5,21,13,5,29.90,29.76,27,10,34,0.00
2013-5-30,94.8,81.1,64.2,40.8,32.4,23.5,28,18,9,29.99,29.85,21,7,26,0.00
2013-5-31,98.1,83.9,66.6,37.9,30.6,24.1,26,15,8,30.02,29.86,19,6,25,0.00
2013-6-1,98.2,85.6,70.5,38.3,25.3,4.8,27,13,4,30.05,29.93,28,4,28,0.00
2013-6-2,97.9,82.2,72.0,59.7,51.1,40.1,55,35,22,30.09,29.88,38,12,42,0.00
2013-6-3,100.0,82.9,67.3,56.1,39.1,2.1,67,32,3,30.05,29.88,26,6,33,0.00
2013-6-4,100.9,85.4,64.2,44.2,29.1,13.3,35,16,6,30.04,29.91,18,5,24,0.00
2013-6-5,100.0,86.2,67.8,36.1,24.6,10.4,26,13,4,30.04,29.88,21,4,22,0.00
2013-6-6,95.4,82.7,66.4,48.6,39.8,13.3,44,24,9,30.04,29.91,27,8,35,0.00
2013-6-7,95.9,81.5,72.1,59.2,51.9,37.8,60,38,16,30.06,29.87,40,8,40,0.00
2013-6-8,103.3,85.2,65.5,53.8,40.1,18.1,60,28,6,29.99,29.80,20,6,24,0.00
2013-6-9,101.7,88.8,73.2,52.0,39.0,22.1,30,18,10,30.03,29.87,19,4,24,0.00
2013-6-10,104.4,90.8,77.0,52.2,46.2,29.8,39,24,9,30.07,29.94,18,6,24,0.00
2013-6-11,106.0,91.1,73.2,48.0,37.7,22.8,32,17,7,30.07,29.92,15,4,19,0.00
2013-6-12,106.7,91.0,71.6,51.4,39.8,29.1,30,18,7,30.07,29.92,22,4,22,0.00
2013-6-13,101.3,87.7,77.9,59.7,53.8,42.1,51,34,14,30.08,29.94,26,8,27,0.00
2013-6-14,98.2,82.6,70.2,59.2,55.1,48.0,65,42,21,30.07,29.90,26,5,28,0.00
2013-6-15,100.2,86.4,70.0,61.0,51.4,41.7,69,35,14,30.09,29.94,18,3,19,0.00
2013-6-16,102.7,89.2,75.7,52.2,47.6,42.8,42,25,14,30.11,29.96,20,4,22,0.00
2013-6-17,103.1,88.5,75.6,60.3,51.3,45.7,46,29,15,30.08,29.93,32,5,33,0.00
2013-6-18,100.9,86.8,73.0,57.9,52.5,32.4,57,35,10,30.10,29.93,19,7,20,0.00
2013-6-19,104.7,91.9,74.3,59.5,44.1,17.4,53,25,5,30.01,29.85,26,6,28,0.00
2013-6-20,103.8,90.2,77.5,53.2,45.2,34.5,38,23,10,30.05,29.92,28,7,31,0.00
2013-6-21,102.9,88.0,71.8,57.0,47.7,27.3,52,28,11,30.09,29.92,27,5,35,0.00
2013-6-22,103.5,89.6,74.5,52.9,32.7,16.9,33,14,8,30.07,29.88,26,5,33,0.00
2013-6-23,102.4,89.8,74.8,52.5,36.2,20.1,45,18,8,30.04,29.87,20,6,24,0.00
2013-6-24,101.5,88.8,71.4,47.8,38.5,32.4,30,18,11,30.06,29.91,20,4,24,0.00
2013-6-25,101.7,88.5,72.3,47.3,31.2,11.5,29,15,6,30.10,29.97,19,5,22,0.00
2013-6-26,104.7,88.3,69.1,29.3,15.9,-2.4,15,8,2,30.13,30.00,15,4,17,0.00
2013-6-27,108.7,89.6,69.1,40.3,15.8,0.1,18,8,2,30.14,30.00,11,2,14,0.00
2013-6-28,101.5,90.5,80.1,45.0,39.2,34.3,26,17,10,30.21,30.05,16,5,20,0.00
2013-6-29,104.5,89.8,73.2,48.2,40.2,29.5,37,20,8,30.16,29.99,26,4,28,0.00
2013-6-30,100.2,89.2,79.9,61.0,48.4,41.5,50,26,16,30.12,29.94,29,7,36,0.00
2013-7-1,85.8,76.0,67.8,63.7,59.5,50.9,84,59,34,30.25,30.05,26,7,33,0.06
2013-7-2,90.0,77.6,64.9,62.2,53.7,45.9,82,48,23,30.26,30.08,23,5,31,0.00
2013-7-3,94.3,81.3,68.2,58.3,52.6,45.1,69,40,20,30.17,29.96,21,4,26,0.01
2013-7-4,97.2,82.8,67.6,58.5,54.0,48.6,70,41,20,30.04,29.90,13,3,13,0.00
2013-7-5,101.5,87.1,70.2,55.6,51.0,39.0,55,32,12,30.04,29.86,21,4,24,0.00
2013-7-6,102.4,88.5,73.2,59.0,55.0,46.6,60,35,16,30.01,29.86,20,3,23,0.00
2013-7-7,104.2,91.6,81.0,57.9,52.5,46.4,44,28,16,30.03,29.91,18,6,24,0.00
2013-7-8,100.2,88.2,74.5,64.6,54.8,47.8,68,36,18,30.13,30.01,21,6,26,0.03
2013-7-9,101.7,89.8,79.2,60.1,55.3,47.3,48,33,17,30.18,30.01,18,6,23,0.00
2013-7-10,98.8,88.2,76.5,61.2,57.0,51.4,57,37,21,30.18,30.00,18,5,19,0.00
2013-7-11,100.6,87.9,75.2,62.8,56.8,49.6,60,37,20,30.13,29.99,19,4,22,0.00
2013-7-12,100.8,86.4,75.7,66.0,57.2,47.5,66,40,18,30.10,29.94,19,4,26,0.00
2013-7-13,100.8,87.4,72.0,61.9,55.4,43.9,65,38,17,30.12,29.96,15,3,17,0.00
2013-7-14,101.8,89.7,74.8,63.5,54.3,46.2,57,33,18,30.09,29.91,20,5,23,0.19
2013-7-15,87.1,77.9,70.2,61.9,58.1,51.8,65,51,39,30.15,29.96,24,8,24,0.00
2013-7-16,88.3,76.9,66.9,57.2,52.9,46.6,69,46,25,30.19,30.09,16,5,18,0.00
2013-7-17,81.9,75.6,68.7,60.8,56.5,52.7,69,52,40,30.25,30.18,24,8,29,0.00
2013-7-18,75.6,68.9,65.7,67.5,64.8,59.9,93,87,68,30.25,30.13,15,2,21,0.63
2013-7-19,82.8,73.9,67.8,68.0,65.2,60.8,93,76,50,30.18,30.04,15,3,17,0.03
2013-7-20,91.0,79.1,67.8,66.6,63.3,58.1,89,61,37,30.10,29.96,14,4,19,0.00
2013-7-21,95.5,81.2,69.4,64.4,60.1,51.6,77,52,24,30.08,29.93,17,3,22,0.00
2013-7-22,96.3,80.3,69.6,66.7,62.7,56.1,79,58,28,30.09,29.96,20,4,27,0.00
2013-7-23,98.8,78.3,69.4,68.9,62.9,56.3,84,63,25,30.12,29.96,29,4,41,1.41
2013-7-24,94.3,79.4,69.3,68.2,65.0,57.0,90,66,33,30.14,30.00,25,3,28,0.21
2013-7-25,87.3,77.1,68.0,67.3,65.2,60.3,90,68,44,30.22,30.11,25,4,26,0.10
2013-7-26,96.6,80.3,71.1,69.8,66.7,60.1,90,67,32,30.22,30.09,18,4,22,0.12
2013-7-27,86.4,77.3,69.1,69.6,65.0,62.1,92,68,46,30.24,30.05,15,3,17,0.00
2013-7-28,91.8,76.5,66.4,68.5,65.5,59.5,91,71,39,30.12,29.97,30,2,33,0.14
2013-7-29,96.3,83.3,70.3,67.8,61.1,52.7,80,52,25,30.13,30.04,11,3,13,0.00
2013-7-30,99.7,85.1,73.0,63.0,58.4,49.1,67,43,21,30.22,30.12,30,4,40,0.00
2013-7-31,100.6,86.8,73.0,63.5,57.6,45.0,69,41,16,30.24,30.09,16,3,18,0.00
2013-8-1,97.5,85.6,73.0,66.6,57.9,47.3,80,43,19,30.22,30.04,17,4,22,0.02
2013-8-2,98.1,86.4,72.9,65.8,59.8,50.2,76,44,22,30.12,29.99,15,3,18,0.06
2013-8-3,98.6,86.8,74.7,62.4,57.9,52.3,63,40,24,30.14,30.02,11,3,14,0.00
2013-8-4,91.9,80.7,76.1,61.9,57.9,54.3,54,46,33,30.16,30.07,10,2,12,0.00
2013-8-5,99.5,86.2,75.4,61.0,57.2,50.5,60,39,20,30.16,30.00,18,6,22,0.00
2013-8-6,95.7,83.0,70.9,60.4,56.8,51.3,66,44,24,30.14,30.02,17,5,23,0.00
2013-8-7,93.2,82.1,69.6,60.1,56.5,51.6,66,44,26,30.15,30.01,22,6,24,0.00
2013-8-8,97.3,82.7,69.4,60.1,51.9,43.3,62,38,17,30.12,29.98,31,3,34,0.00
2013-8-9,98.1,85.4,69.8,57.4,47.1,42.6,43,28,16,30.12,30.02,16,3,18,0.00
2013-8-10,87.3,80.6,76.6,62.4,57.3,50.4,61,45,32,30.27,30.12,18,6,23,0.00
2013-8-11,92.7,79.5,64.9,63.3,60.1,53.2,88,56,28,30.24,30.07,23,7,24,0.00
2013-8-12,96.4,86.2,76.3,61.5,58.5,55.0,55,40,27,30.17,30.04,15,4,17,0.00
2013-8-13,94.5,83.2,74.1,64.6,60.7,52.3,72,48,29,30.19,30.04,15,5,18,0.01
2013-8-14,98.1,82.6,66.4,64.8,58.8,53.4,87,48,25,30.22,30.03,38,5,51,1.44
2013-8-15,93.0,78.8,67.8,65.1,61.6,55.2,86,59,29,30.23,30.08,17,3,17,0.02
2013-8-16,96.1,82.2,69.8,65.7,60.3,52.5,79,51,24,30.20,30.07,20,2,21,0.00
2013-8-17,99.7,85.2,70.0,64.6,55.5,41.7,76,42,15,30.19,30.03,10,2,13,0.00
2013-8-18,99.1,86.5,72.5,59.0,53.0,48.6,59,34,20,30.16,30.04,12,3,15,0.00
2013-8-19,99.7,83.8,71.2,64.0,57.2,48.7,75,43,19,30.16,30.03,21,3,24,0.02
2013-8-20,93.6,83.1,71.1,60.3,55.6,48.4,68,41,22,30.13,30.01,21,2,23,0.00
2013-8-21,97.0,83.8,68.2,61.2,51.9,34.7,75,38,16,30.14,30.03,17,4,19,0.00
2013-8-22,95.4,84.3,70.9,57.4,47.9,36.1,51,30,14,30.18,30.02,16,5,19,0.00
2013-8-23,93.6,81.4,71.6,57.6,54.7,46.9,58,42,21,30.15,30.00,26,7,36,0.00
2013-8-24,91.4,81.3,72.1,60.6,57.9,55.0,63,46,31,30.15,30.04,20,6,21,0.00
2013-8-25,94.6,83.3,70.5,64.6,57.6,49.6,75,45,23,30.21,30.08,19,6,23,0.00
2013-8-26,93.6,84.1,74.1,58.8,55.3,52.0,54,38,26,30.22,30.07,19,7,26,0.00
2013-8-27,89.2,79.1,71.4,67.5,60.0,54.5,82,54,36,30.17,30.06,25,4,26,0.05
2013-8-28,81.1,73.7,70.2,68.7,66.2,63.1,93,78,56,30.21,30.09,11,3,13,0.02
2013-8-29,79.9,73.3,66.9,68.4,65.7,62.8,92,78,60,30.27,30.17,10,1,12,0.02
2013-8-30,91.4,77.8,64.8,68.5,64.4,60.4,93,66,37,30.22,30.07,10,2,12,0.00
2013-8-31,97.9,83.3,69.1,65.3,59.1,50.5,78,48,24,30.13,29.97,10,2,21,0.00
2013-9-1,99.7,85.6,70.9,63.3,54.7,42.1,68,38,16,30.08,29.97,12,2,15,0.00
2013-9-2,97.2,84.8,72.1,64.6,55.5,47.1,66,39,23,30.15,30.01,20,6,26,0.07
2013-9-3,94.5,83.8,73.2,63.9,55.6,43.9,65,41,22,30.19,30.03,17,4,18,0.00
2013-9-4,93.9,83.3,70.0,55.9,52.3,48.7,56,36,24,30.22,30.09,18,4,21,0.00
2013-9-5,95.0,85.3,72.0,57.4,49.6,40.6,57,31,17,30.23,30.11,18,5,20,0.00
2013-9-6,94.5,85.1,74.1,57.4,54.2,50.4,54,36,23,30.22,30.04,19,5,22,0.00
2013-9-7,95.4,85.0,75.0,57.4,53.9,48.4,51,36,24,30.15,30.00,18,6,22,0.00
2013-9-8,94.5,84.8,76.3,58.8,53.2,46.8,53,35,22,30.08,29.91,17,7,21,0.00
2013-9-9,90.7,79.1,72.1,63.9,58.0,51.8,64,49,32,30.02,29.92,21,8,24,0.00
2013-9-10,78.1,70.2,67.1,67.6,65.8,60.8,95,86,64,30.10,29.99,16,4,17,0.88
2013-9-11,81.3,72.6,67.8,70.2,67.1,65.5,95,83,62,30.13,30.05,16,2,20,0.03
2013-9-12,72.0,68.7,66.2,67.1,65.6,62.1,97,90,74,30.13,30.05,17,3,19,2.01
2013-9-13,73.6,69.5,66.4,68.2,65.0,62.1,94,86,74,30.09,29.99,16,4,17,0.39
2013-9-14,84.9,75.0,67.3,62.8,59.7,54.0,82,61,37,30.05,29.95,14,3,15,0.00
2013-9-15,87.8,75.6,64.0,64.2,59.7,57.2,84,60,38,30.09,29.99,13,3,18,0.00
2013-9-16,86.0,75.6,67.1,65.3,61.2,57.9,78,62,44,30.19,30.07,17,6,20,0.00
2013-9-17,86.9,76.6,66.9,63.9,61.8,59.0,83,62,40,30.15,29.99,19,4,19,0.00
2013-9-18,87.4,77.1,67.5,63.9,61.7,60.3,79,60,43,30.07,29.92,16,4,18,0.00
2013-9-19,88.2,76.3,66.9,66.0,63.2,57.7,84,65,42,30.03,29.91,24,4,35,0.00
2013-9-20,85.5,74.7,64.6,65.3,60.4,54.7,91,64,36,30.12,30.00,18,4,20,0.00
2013-9-21,81.0,71.9,63.1,60.3,56.9,52.5,85,61,40,30.17,30.00,19,5,22,0.00
2013-9-22,87.6,74.7,61.5,57.2,53.4,49.1,77,50,29,30.01,29.80,15,5,18,0.00
2013-9-23,85.3,74.2,62.1,57.7,46.2,37.4,70,40,19,30.06,29.86,17,4,22,0.00
2013-9-24,85.8,70.4,56.5,47.1,43.3,37.8,65,41,19,30.18,30.04,11,1,12,0.00
2013-9-25,92.1,74.5,55.6,52.7,47.5,41.7,68,42,21,30.04,29.84,15,2,15,0.00
2013-9-26,90.3,77.5,62.2,51.4,46.1,39.0,57,35,20,29.99,29.86,15,3,17,0.00
2013-9-27,89.1,77.7,66.4,57.9,51.1,38.3,63,41,20,30.02,29.86,21,7,26,0.00
2013-9-28,77.5,66.4,55.0,45.9,35.0,27.1,52,34,17,30.22,30.02,13,4,16,0.00
2013-9-29,83.1,64.5,46.2,40.5,35.0,30.7,57,36,16,30.26,30.09,12,2,15,0.00
2013-9-30,88.9,70.0,51.6,43.9,35.3,24.3,58,32,11,30.11,29.96,18,3,18,0.00
2013-10-1,89.1,71.0,52.3,39.6,28.5,3.9,48,24,5,30.10,29.98,19,3,19,0.00
2013-10-2,88.9,71.3,55.8,42.1,35.5,28.0,43,28,16,30.10,29.97,15,2,22,0.00
2013-10-3,86.7,70.8,54.7,44.4,36.6,27.1,56,32,12,30.05,29.90,15,3,20,0.00
2013-10-4,86.4,71.8,55.8,48.6,40.0,30.4,64,35,14,30.06,29.94,20,5,27,0.00
2013-10-5,75.6,63.0,51.3,38.3,24.9,18.1,44,24,16,30.24,30.06,13,5,17,0.00
2013-10-6,75.7,60.0,43.0,30.0,26.2,21.6,52,30,14,30.32,30.20,10,1,12,0.00
2013-10-7,80.1,62.0,43.5,36.1,30.7,22.1,59,34,12,30.30,30.12,11,1,13,0.00
2013-10-8,86.2,66.9,47.5,39.6,34.8,27.5,59,34,15,30.12,29.94,12,2,15,0.00
2013-10-9,85.5,69.8,51.6,43.9,38.0,34.0,55,33,19,30.05,29.91,19,3,22,0.00
2013-10-10,84.6,71.1,59.0,47.3,39.5,33.1,56,34,17,30.01,29.88,31,9,37,0.00
2013-10-11,77.2,62.9,47.1,40.6,37.6,34.9,64,41,24,30.09,29.98,20,2,22,0.00
2013-10-12,82.0,64.7,45.9,43.2,38.3,32.4,69,41,17,30.16,30.03,15,2,20,0.00
2013-10-13,83.1,69.6,54.7,54.9,46.4,42.1,67,45,26,30.15,30.04,16,3,17,0.00
2013-10-14,78.3,70.3,62.2,51.1,48.9,47.1,60,47,36,30.14,30.03,17,3,17,0.00
2013-10-15,75.6,66.4,58.6,55.0,51.1,47.7,68,58,46,30.09,29.99,20,6,23,0.00
2013-10-16,76.3,63.1,53.4,50.9,38.9,20.3,77,47,15,30.16,30.05,20,6,25,0.00
2013-10-17,76.5,58.7,42.3,32.4,25.9,20.3,54,31,13,30.17,29.99,12,1,14,0.00
2013-10-18,77.4,59.3,42.3,33.4,24.7,16.0,54,30,11,30.13,30.00,17,2,22,0.00
2013-10-19,72.0,57.1,41.5,34.2,31.7,28.6,66,40,21,30.26,30.08,22,2,25,0.00
2013-10-20,79.7,58.8,39.7,35.1,25.6,14.2,67,34,9,30.10,29.93,16,2,20,0.00
2013-10-21,73.4,58.8,41.4,37.2,27.7,15.4,47,31,21,30.19,30.00,15,3,16,0.00
2013-10-22,74.8,58.5,42.1,41.0,35.2,28.9,72,45,19,30.29,30.15,9,1,11,0.00
2013-10-23,79.0,60.2,41.5,38.7,35.1,31.3,68,42,22,30.23,30.09,13,1,13,0.00
2013-10-24,81.7,66.4,49.5,44.1,38.6,33.4,57,38,25,30.20,30.06,16,4,17,0.00
2013-10-25,79.9,69.1,57.2,46.4,41.1,35.2,62,37,25,30.22,30.08,21,5,23,0.00
2013-10-26,76.8,62.9,48.7,47.7,41.4,34.9,80,49,22,30.26,30.14,14,3,16,0.00
2013-10-27,75.7,61.6,49.1,43.9,40.8,37.8,65,48,30,30.22,29.98,12,1,13,0.00
2013-10-28,80.8,65.7,48.2,43.9,33.5,19.9,74,38,11,30.06,29.96,18,5,25,0.00
2013-10-29,70.9,65.5,60.3,40.5,32.0,26.1,42,29,19,30.11,29.98,14,2,19,0.00
2013-10-30,72.7,61.9,51.3,48.7,41.6,29.5,68,48,35,30.05,29.92,24,6,32,0.00
2013-10-31,70.0,55.0,41.2,30.7,20.3,7.0,50,29,9,30.18,30.02,17,4,20,0.00
2013-11-1,69.6,54.5,39.0,29.3,22.0,15.3,43,29,16,30.24,30.09,17,3,20,0.00
2013-11-2,72.9,55.6,37.8,28.6,24.0,21.4,54,32,15,30.33,30.09,15,-1,19,0.00
2013-11-3,78.1,62.3,46.9,47.8,32.2,20.1,68,34,18,30.09,29.89,22,2,22,0.00
2013-11-4,75.7,63.1,49.5,52.5,47.2,41.5,89,59,34,30.01,29.88,12,2,17,0.00
2013-11-5,69.3,60.7,50.5,47.7,40.3,30.7,67,48,31,30.19,29.91,21,5,22,0.00
2013-11-6,64.9,51.9,39.0,33.8,21.0,9.0,58,33,14,30.38,30.19,14,4,16,0.00
2013-11-7,69.4,51.6,32.4,25.7,17.1,8.4,42,27,13,30.45,30.27,14,4,17,0.00
2013-11-8,74.5,57.7,42.8,43.5,34.1,22.5,71,42,29,30.27,30.08,7,1,9,0.00
2013-11-9,76.1,58.3,43.2,47.3,37.3,29.8,87,51,21,30.22,30.13,8,-3,11,0.00
2013-11-10,78.1,57.1,39.2,37.6,32.3,28.0,68,42,18,30.31,30.18,7,-6,10,0.00
2013-11-11,79.2,60.5,42.8,41.9,35.2,29.7,61,41,26,30.28,30.16,7,1,8,0.00
2013-11-12,64.2,55.9,47.8,44.2,38.8,31.8,70,53,39,30.51,30.27,19,8,24,0.00
2013-11-13,61.5,52.7,45.0,42.3,39.3,34.7,77,61,46,30.51,30.18,18,6,22,0.02
2013-11-14,70.7,56.7,43.0,46.2,41.9,37.4,83,60,37,30.18,29.99,9,1,11,0.00
2013-11-15,72.9,58.7,44.2,53.4,45.9,38.5,83,64,39,30.04,29.85,22,5,26,0.04
2013-11-16,75.6,63.1,52.0,50.7,46.2,39.6,83,58,29,29.97,29.82,27,7,33,0.00
2013-11-17,71.1,57.7,47.1,44.4,40.9,36.7,80,56,32,30.16,29.96,20,3,23,0.00
2013-11-18,72.9,58.0,47.8,40.8,37.8,35.6,66,49,27,30.23,30.11,7,1,9,0.00
2013-11-19,75.4,58.0,42.3,44.2,38.9,33.6,74,52,28,30.13,29.96,13,1,20,0.00
2013-11-20,72.3,58.5,46.0,44.4,39.5,34.7,73,51,34,30.03,29.91,13,2,17,0.00
2013-11-21,74.7,61.2,44.4,44.6,39.8,36.7,75,47,29,30.09,29.98,17,2,18,0.00
2013-11-22,61.9,46.4,37.8,39.2,32.6,26.6,66,59,40,30.32,30.05,33,11,34,0.00
2013-11-23,42.1,38.1,33.3,33.1,28.6,25.5,83,68,59,30.40,30.28,22,5,24,0.01
2013-11-24,36.7,33.8,30.7,29.3,28.0,26.1,86,79,73,30.34,30.22,16,4,19,0.06
2013-11-25,45.7,37.6,32.5,34.3,31.2,28.8,86,78,62,30.33,30.17,10,2,11,0.05
2013-11-26,54.7,40.7,27.5,34.5,28.2,24.4,90,65,35,30.45,30.33,8,-3,9,0.00
2013-11-27,50.7,40.0,28.4,30.0,25.8,21.7,83,59,32,30.42,30.22,14,1,15,0.00
2013-11-28,58.8,42.8,27.3,30.7,27.7,22.8,86,58,31,30.30,30.20,7,0,8,0.00
2013-11-29,64.9,47.1,31.8,36.5,31.8,25.7,82,58,33,30.36,30.23,8,0,11,0.00
2013-11-30,65.8,49.6,36.1,39.7,35.8,31.1,83,62,37,30.32,30.19,5,0,6,0.00
2013-12-1,58.6,50.5,43.9,42.6,39.9,36.7,76,67,53,30.29,30.18,6,0,9,0.00
2013-12-2,67.3,49.7,34.5,37.2,29.2,19.6,84,51,19,30.19,29.97,9,2,11,0.00
2013-12-3,72.1,54.5,37.0,40.1,25.2,14.0,61,36,13,29.97,29.81,20,4,24,0.00
2013-12-4,71.4,59.4,47.8,46.0,39.1,30.7,77,50,28,29.94,29.82,32,8,40,0.00
2013-12-5,59.4,51.0,40.5,47.3,41.7,36.0,92,72,46,30.03,29.87,22,5,25,0.21
2013-12-6,53.8,42.3,33.3,35.8,30.2,26.2,86,65,36,30.19,30.03,12,2,14,0.00
2013-12-7,43.0,37.6,33.4,33.4,31.7,29.3,87,79,68,30.17,30.00,25,10,31,0.00
2013-12-8,56.7,40.7,26.1,34.7,26.7,22.1,93,63,28,30.09,29.99,19,3,22,0.00
2013-12-9,55.2,41.2,29.5,33.6,21.6,6.3,85,51,19,30.36,30.04,23,5,26,0.00
2013-12-10,48.0,34.8,21.0,11.3,6.2,2.3,50,31,16,30.41,30.22,13,-1,17,0.00
2013-12-11,56.7,40.3,27.5,24.1,15.0,8.4,50,37,19,30.44,30.26,16,-1,18,0.00
2013-12-12,48.6,41.7,37.9,37.6,30.8,20.3,88,66,43,30.45,30.18,11,2,15,0.03
2013-12-13,57.9,44.8,33.6,40.8,35.1,31.3,94,71,38,30.18,30.04,24,4,26,0.01
2013-12-14,57.4,42.9,30.6,33.8,27.3,21.7,89,58,28,30.39,30.12,12,1,14,0.00
2013-12-15,57.6,40.4,27.0,27.0,23.4,20.8,81,54,27,30.41,30.28,8,-3,11,0.00
2013-12-16,61.3,43.6,28.8,26.6,23.9,20.1,74,49,25,30.39,30.26,7,-6,8,0.00
2013-12-17,65.8,46.3,30.7,28.9,25.8,22.8,75,48,22,30.40,30.26,5,0,7,0.00
2013-12-18,63.0,45.6,30.4,29.7,25.4,21.6,72,48,25,30.28,30.01,5,0,6,0.00
2013-12-19,70.7,51.1,33.3,28.8,21.1,-0.2,70,37,6,30.01,29.81,25,3,29,0.00
2013-12-20,60.6,49.6,39.4,45.3,35.0,20.5,86,59,30,29.87,29.71,19,4,22,0.04
2013-12-21,48.4,42.2,35.8,34.5,32.3,29.8,88,69,51,29.99,29.75,30,12,33,0.01
2013-12-22,53.8,43.1,32.7,31.8,26.9,21.7,81,55,30,30.30,29.99,16,3,17,0.00
2013-12-23,55.2,38.6,24.6,28.0,21.6,18.7,82,54,25,30.47,30.30,8,1,8,0.00
2013-12-24,59.2,39.4,24.1,27.7,22.7,16.9,76,54,29,30.41,30.19,7,-3,9,0.00
2013-12-25,56.1,42.3,28.6,29.7,26.3,20.8,77,55,34,30.41,30.23,15,2,17,0.00
2013-12-26,53.6,39.8,28.9,28.6,24.8,21.0,77,57,33,30.41,30.26,8,-2,9,0.00
2013-12-27,56.7,38.6,23.7,27.3,22.6,17.2,78,55,30,30.39,30.27,12,-3,16,0.00
2013-12-28,57.6,40.0,23.7,30.9,23.9,16.2,75,54,35,30.27,30.01,12,1,12,0.00
2013-12-29,55.6,43.3,35.1,27.9,24.9,21.4,66,50,30,30.25,30.01,21,6,24,0.00
2013-12-30,56.8,40.1,24.3,26.2,21.4,16.5,75,49,27,30.35,30.24,10,1,11,0.00
2013-12-31,59.9,41.2,24.8,24.4,20.9,15.6,69,47,25,30.37,30.18,8,1,11,0.00
2014-1-1,62.8,43.3,25.5,25.2,21.1,16.3,72,45,21,30.27,30.11,9,1,10,0.00
2014-1-2,58.8,45.4,33.4,28.9,25.2,17.6,68,46,28,30.41,30.25,17,4,21,0.00